createdAt,value
2019-04-27T00:01:24.845Z,29.87
2019-04-27T00:04:27.333Z,26.80
2019-04-27T00:07:07.173Z,31.50
2019-04-27T00:09:50.223Z,32.73
2019-04-27T00:12:24.747Z,30.37
2019-04-27T00:14:58.143Z,28.05
2019-04-27T00:17:49.700Z,28.20
2019-04-27T00:20:43.385Z,26.90
2019-04-27T00:23:23.598Z,32.67
2019-04-27T00:25:58.067Z,31.50
2019-04-27T00:28:33.207Z,26.55
2019-04-27T00:31:07.708Z,28.65
2019-04-27T00:33:43.447Z,29.18
2019-04-27T00:36:35.229Z,27.55
2019-04-27T00:39:29.108Z,30.62
2019-04-27T00:42:03.824Z,28.52
2019-04-27T00:44:38.401Z,29.75
2019-04-27T00:47:13.782Z,28.35
2019-04-27T00:49:48.152Z,30.57
2019-04-27T00:52:24.023Z,31.15
2019-04-27T00:54:58.999Z,32.53
2019-04-27T00:57:55.120Z,36.58
2019-04-27T01:01:04.103Z,30.15
2019-04-27T01:03:43.376Z,32.25
2019-04-27T01:06:17.915Z,27.65
2019-04-27T01:08:53.205Z,26.33
2019-04-27T01:11:27.854Z,27.52
2019-04-27T01:14:03.894Z,33.98
2019-04-27T01:16:39.189Z,30.80
2019-04-27T01:19:14.016Z,28.57
2019-04-27T01:21:49.651Z,36.68
2019-04-27T01:24:23.842Z,28.42
2019-04-27T01:27:23.174Z,31.93
2019-04-27T01:29:58.819Z,32.20
2019-04-27T01:32:34.021Z,35.00
2019-04-27T01:35:08.713Z,30.95
2019-04-27T01:37:43.921Z,32.67
2019-04-27T01:40:19.349Z,41.20
2019-04-27T01:42:54.504Z,32.58
2019-04-27T01:45:29.125Z,32.33
2019-04-27T01:48:03.601Z,36.77
2019-04-27T01:50:39.192Z,33.88
2019-04-27T01:53:14.090Z,36.93
2019-04-27T01:55:49.120Z,33.67
2019-04-27T01:58:24.135Z,36.23
2019-04-27T02:01:26.076Z,38.38
2019-04-27T02:04:22.804Z,36.67
2019-04-27T02:06:59.244Z,34.48
2019-04-27T02:09:34.631Z,34.15
2019-04-27T02:12:09.417Z,35.38
2019-04-27T02:14:44.712Z,42.05
2019-04-27T02:17:19.310Z,39.38
2019-04-27T02:19:54.508Z,35.73
2019-04-27T02:22:29.677Z,36.48
2019-04-27T02:25:04.816Z,32.93
2019-04-27T02:27:40.984Z,40.78
2019-04-27T02:30:52.278Z,36.80
2019-04-27T02:33:34.262Z,31.87
2019-04-27T02:36:14.599Z,30.40
2019-04-27T02:38:44.746Z,38.75
2019-04-27T02:41:19.890Z,31.77
2019-04-27T02:44:01.726Z,31.12
2019-04-27T02:46:36.125Z,38.27
2019-04-27T02:49:10.815Z,33.85
2019-04-27T02:52:06.129Z,34.33
2019-04-27T02:54:40.430Z,31.23
2019-04-27T02:57:14.781Z,33.80
2019-04-27T02:59:50.273Z,39.55
2019-04-27T03:02:34.250Z,35.20
2019-04-27T03:05:12.690Z,35.52
2019-04-27T03:07:44.976Z,40.08
2019-04-27T03:10:19.975Z,46.45
2019-04-27T03:13:23.700Z,33.30
2019-04-27T03:16:32.095Z,32.28
2019-04-27T03:19:34.364Z,38.88
2019-04-27T03:22:29.565Z,39.75
2019-04-27T03:25:30.350Z,31.15
2019-04-27T03:28:10.971Z,31.73
2019-04-27T03:30:45.987Z,32.28
2019-04-27T03:33:22.309Z,30.12
2019-04-27T03:35:56.671Z,29.77
2019-04-27T03:38:30.962Z,39.88
2019-04-27T03:41:05.458Z,39.25
2019-04-27T03:43:40.364Z,34.65
2019-04-27T03:46:14.933Z,37.90
2019-04-27T03:48:49.817Z,39.18
2019-04-27T03:51:42.785Z,33.15
2019-04-27T03:54:22.458Z,37.98
2019-04-27T03:57:15.778Z,34.95
2019-04-27T04:00:00.311Z,34.20
2019-04-27T04:02:36.489Z,38.75
2019-04-27T04:05:10.833Z,37.85
2019-04-27T04:07:45.241Z,42.30
2019-04-27T04:10:20.100Z,38.25
2019-04-27T04:13:02.778Z,40.98
2019-04-27T04:18:25.898Z,43.52
2019-04-27T04:21:00.570Z,41.55
2019-04-27T04:23:34.967Z,48.30
2019-04-27T04:26:09.851Z,45.92
2019-04-27T04:28:44.143Z,68.65
2019-04-27T04:31:20.783Z,71.30
2019-04-27T04:33:55.157Z,70.37
2019-04-27T04:36:30.297Z,79.72
2019-04-27T04:39:19.836Z,73.67
2019-04-27T04:42:10.354Z,90.95
2019-04-27T04:45:21.625Z,92.95
2019-04-27T04:52:42.480Z,90.38
2019-04-27T04:55:16.547Z,79.90
2019-04-27T04:57:50.787Z,86.37
2019-04-27T05:00:25.344Z,336.25
2019-04-27T05:02:59.832Z,140.15
2019-04-27T05:05:34.340Z,148.20
2019-04-27T05:08:09.218Z,135.75
2019-04-27T05:10:43.702Z,120.28
2019-04-27T05:13:19.329Z,119.02
2019-04-27T05:15:53.766Z,107.60
2019-04-27T05:18:29.298Z,104.43
2019-04-27T05:21:09.369Z,90.42
2019-04-27T05:23:43.588Z,81.75
2019-04-27T05:26:18.997Z,84.00
2019-04-27T05:28:54.213Z,85.25
2019-04-27T05:31:29.400Z,78.50
2019-04-27T05:34:06.704Z,77.72
2019-04-27T05:36:48.393Z,83.47
2019-04-27T05:39:18.023Z,79.03
2019-04-27T05:41:52.808Z,65.42
2019-04-27T05:44:48.858Z,62.62
2019-04-27T05:47:48.433Z,63.87
2019-04-27T05:50:22.066Z,72.30
2019-04-27T05:52:59.708Z,52.78
2019-04-27T05:55:34.595Z,54.95
2019-04-27T05:58:09.397Z,52.00
2019-04-27T06:00:44.281Z,56.05
2019-04-27T06:03:20.859Z,50.80
2019-04-27T06:05:54.799Z,47.00
2019-04-27T06:08:29.512Z,58.83
2019-04-27T06:11:03.832Z,55.95
2019-04-27T06:13:39.233Z,52.53
2019-04-27T06:16:13.798Z,49.27
2019-04-27T06:18:49.309Z,48.00
2019-04-27T06:21:23.735Z,42.03
2019-04-27T06:23:58.863Z,46.63
2019-04-27T06:26:33.366Z,53.20
2019-04-27T06:29:09.525Z,43.48
2019-04-27T06:31:44.683Z,48.90
2019-04-27T06:34:19.537Z,55.45
2019-04-27T06:36:53.705Z,53.98
2019-04-27T06:39:29.922Z,44.73
2019-04-27T06:42:15.931Z,49.38
2019-04-27T06:44:40.862Z,45.92
2019-04-27T06:47:15.678Z,40.40
2019-04-27T06:49:50.907Z,41.15
2019-04-27T06:52:25.190Z,47.75
2019-04-27T06:55:00.596Z,42.58
2019-04-27T06:57:35.271Z,38.05
2019-04-27T07:00:10.336Z,47.53
2019-04-27T07:02:45.584Z,49.88
2019-04-27T07:05:20.529Z,57.17
2019-04-27T07:07:55.271Z,59.42
2019-04-27T07:10:30.113Z,56.40
2019-04-27T07:13:04.456Z,56.53
2019-04-27T07:15:40.061Z,40.15
2019-04-27T07:18:14.474Z,56.90
2019-04-27T07:20:49.290Z,42.60
2019-04-27T07:23:23.478Z,51.77
2019-04-27T07:25:59.828Z,31.90
2019-04-27T07:28:34.883Z,35.40
2019-04-27T07:31:10.478Z,52.55
2019-04-27T07:34:10.485Z,42.50
2019-04-27T07:36:55.223Z,37.25
2019-04-27T07:39:34.410Z,42.65
2019-04-27T07:42:09.131Z,45.63
2019-04-27T07:44:51.501Z,34.48
2019-04-27T07:50:09.589Z,40.90
2019-04-27T07:52:44.388Z,35.95
2019-04-27T07:55:18.837Z,42.43
2019-04-27T07:57:56.184Z,37.48
2019-04-27T08:00:30.740Z,39.65
2019-04-27T08:03:05.838Z,43.95
2019-04-27T08:05:40.505Z,45.50
2019-04-27T08:08:15.968Z,41.40
2019-04-27T08:10:54.649Z,47.23
2019-04-27T08:13:29.435Z,37.78
2019-04-27T08:16:04.500Z,44.75
2019-04-27T08:18:39.709Z,41.35
2019-04-27T08:21:14.437Z,63.40
2019-04-27T08:23:49.115Z,51.55
2019-04-27T08:26:37.177Z,56.88
2019-04-27T08:29:25.628Z,53.08
2019-04-27T08:32:07.313Z,52.48
2019-04-27T08:34:43.429Z,51.23
2019-04-27T08:37:19.565Z,56.02
2019-04-27T08:39:56.153Z,45.25
2019-04-27T08:42:32.013Z,40.75
2019-04-27T08:45:09.428Z,41.42
2019-04-27T08:47:45.474Z,43.40
2019-04-27T08:50:21.595Z,40.28
2019-04-27T08:52:57.718Z,43.13
2019-04-27T08:55:35.142Z,42.60
2019-04-27T08:58:11.392Z,35.95
2019-04-27T09:00:49.063Z,35.70
2019-04-27T09:03:25.897Z,26.82
2019-04-27T09:06:04.079Z,27.30
2019-04-27T09:08:46.740Z,27.77
2019-04-27T09:14:24.981Z,19.02
2019-04-27T09:17:29.179Z,21.48
2019-04-27T09:20:25.361Z,18.75
2019-04-27T09:23:01.374Z,21.77
2019-04-27T09:25:41.038Z,14.68
2019-04-27T09:28:20.171Z,21.02
2019-04-27T09:30:58.232Z,16.32
2019-04-27T09:33:34.978Z,17.30
2019-04-27T09:36:16.664Z,16.90
2019-04-27T09:38:50.277Z,15.95
2019-04-27T09:41:26.178Z,17.25
2019-04-27T09:44:02.574Z,12.28
2019-04-27T09:46:37.261Z,12.13
2019-04-27T09:49:12.176Z,16.65
2019-04-27T09:51:49.785Z,15.45
2019-04-27T09:54:24.016Z,11.85
2019-04-27T09:56:59.809Z,9.23
2019-04-27T09:59:34.348Z,11.18
2019-04-27T10:02:09.259Z,11.70
2019-04-27T10:04:43.321Z,18.82
2019-04-27T10:07:17.774Z,17.05
2019-04-27T10:09:52.511Z,11.50
2019-04-27T10:12:27.319Z,17.55
2019-04-27T10:15:03.028Z,13.85
2019-04-27T10:17:45.554Z,14.23
2019-04-27T10:20:20.240Z,12.37
2019-04-27T10:22:56.431Z,14.98
2019-04-27T10:25:30.982Z,32.50
2019-04-27T10:28:06.757Z,25.68
2019-04-27T10:30:41.295Z,14.75
2019-04-27T10:33:16.155Z,23.40
2019-04-27T10:35:50.667Z,18.62
2019-04-27T10:38:25.902Z,17.95
2019-04-27T10:41:00.643Z,13.93
2019-04-27T10:43:34.868Z,12.98
2019-04-27T10:46:09.010Z,15.32
2019-04-27T10:48:43.414Z,11.93
2019-04-27T10:51:17.829Z,11.43
2019-04-27T10:53:52.197Z,14.78
2019-04-27T10:56:27.372Z,13.03
2019-04-27T10:59:01.507Z,12.50
2019-04-27T11:01:36.526Z,15.32
2019-04-27T11:04:32.525Z,11.97
2019-04-27T11:07:12.071Z,13.45
2019-04-27T11:09:46.850Z,10.63
2019-04-27T11:12:21.028Z,14.28
2019-04-27T11:14:55.177Z,13.95
2019-04-27T11:17:29.552Z,13.40
2019-04-27T11:20:03.907Z,15.30
2019-04-27T11:22:38.378Z,14.65
2019-04-27T11:25:13.120Z,12.98
2019-04-27T11:27:47.434Z,12.37
2019-04-27T11:30:21.997Z,12.28
2019-04-27T11:32:58.985Z,9.33
2019-04-27T11:35:47.673Z,12.40
2019-04-27T11:38:22.316Z,14.75
2019-04-27T11:40:56.763Z,13.40
2019-04-27T11:43:31.225Z,14.40
2019-04-27T11:46:06.190Z,10.80
2019-04-27T11:48:40.705Z,15.35
2019-04-27T11:51:17.285Z,14.10
2019-04-27T11:53:51.628Z,15.75
2019-04-27T11:56:27.428Z,15.03
2019-04-27T11:59:01.971Z,16.95
2019-04-27T12:01:36.458Z,10.38
2019-04-27T12:04:10.827Z,11.70
2019-04-27T12:06:46.274Z,9.93
2019-04-27T12:09:20.760Z,13.08
2019-04-27T12:11:57.488Z,9.98
2019-04-27T12:14:31.721Z,12.93
2019-04-27T12:17:06.417Z,12.80
2019-04-27T12:19:40.518Z,11.73
2019-04-27T12:22:16.374Z,16.60
2019-04-27T12:24:51.344Z,15.93
2019-04-27T12:27:46.292Z,12.88
2019-04-27T12:30:26.217Z,15.20
2019-04-27T12:33:00.831Z,10.93
2019-04-27T12:35:36.858Z,11.73
2019-04-27T12:38:11.917Z,12.93
2019-04-27T12:40:46.633Z,13.88
2019-04-27T12:43:20.801Z,14.13
2019-04-27T12:45:55.954Z,14.10
2019-04-27T12:48:30.319Z,14.35
2019-04-27T12:51:04.584Z,15.23
2019-04-27T12:54:55.164Z,23.47
2019-04-27T12:57:47.934Z,21.03
2019-04-27T13:03:08.743Z,15.25
2019-04-27T13:05:43.046Z,14.80
2019-04-27T13:08:17.285Z,18.00
2019-04-27T13:10:51.434Z,17.60
2019-04-27T13:13:26.694Z,17.20
2019-04-27T13:16:01.217Z,24.87
2019-04-27T13:18:36.049Z,23.25
2019-04-27T13:21:10.482Z,23.87
2019-04-27T13:23:45.820Z,32.05
2019-04-27T13:26:20.375Z,36.45
2019-04-27T13:28:54.774Z,37.05
2019-04-27T13:31:29.120Z,29.00
2019-04-27T13:34:03.383Z,26.77
2019-04-27T13:36:37.580Z,31.87
2019-04-27T13:39:11.903Z,30.15
2019-04-27T13:41:46.437Z,36.90
2019-04-27T13:44:20.712Z,27.98
2019-04-27T13:48:57.306Z,33.30
2019-04-27T13:51:37.208Z,23.20
2019-04-27T13:54:18.905Z,35.38
2019-04-27T13:56:47.789Z,26.27
2019-04-27T13:59:21.953Z,27.87
2019-04-27T14:01:56.419Z,29.35
2019-04-27T14:09:41.935Z,30.32
2019-04-27T14:32:04.650Z,32.50
2019-04-27T14:34:40.082Z,24.63
2019-04-27T14:37:14.452Z,30.82
2019-04-27T14:39:48.447Z,29.48
2019-04-27T14:42:23.045Z,36.00
2019-04-27T14:44:58.799Z,34.40
2019-04-27T14:47:33.459Z,36.10
2019-04-27T14:50:08.887Z,33.73
2019-04-27T14:52:43.372Z,32.83
2019-04-27T14:55:17.689Z,30.05
2019-04-27T14:57:51.863Z,35.73
2019-04-27T15:00:26.310Z,34.83
2019-04-27T15:03:00.698Z,36.77
2019-04-27T15:05:34.892Z,36.88
2019-04-27T15:08:17.771Z,36.88
2019-04-27T15:10:53.825Z,35.92
2019-04-27T15:13:28.246Z,39.13
2019-04-27T15:16:06.657Z,40.50
2019-04-27T15:18:43.796Z,37.17
2019-04-27T15:21:20.100Z,39.75
2019-04-27T15:23:54.723Z,36.73
2019-04-27T15:26:30.776Z,38.48
2019-04-27T15:29:06.930Z,41.35
2019-04-27T15:31:45.870Z,41.58
2019-04-27T15:34:45.171Z,35.68
2019-04-27T15:37:28.104Z,42.95
2019-04-27T15:40:26.357Z,38.90
2019-04-27T15:43:04.298Z,49.63
2019-04-27T15:45:39.297Z,44.83
2019-04-27T15:48:13.851Z,47.40
2019-04-27T15:50:48.378Z,45.58
2019-04-27T15:53:22.490Z,50.73
2019-04-27T15:56:00.008Z,59.42
2019-04-27T15:58:32.588Z,41.60
2019-04-27T16:01:11.269Z,42.70
2019-04-27T16:03:44.070Z,39.98
2019-04-27T16:06:19.070Z,31.97
2019-04-27T16:08:54.037Z,44.75
2019-04-27T16:11:28.396Z,38.98
2019-04-27T16:14:06.358Z,31.68
2019-04-27T16:16:40.419Z,41.00
2019-04-27T16:19:15.475Z,35.33
2019-04-27T16:21:54.040Z,40.63
2019-04-27T16:25:44.960Z,39.15
2019-04-27T16:28:09.777Z,32.60
2019-04-27T16:30:45.751Z,24.45
2019-04-27T16:33:23.534Z,22.02
2019-04-27T16:36:00.351Z,18.60
2019-04-27T16:38:54.698Z,21.85
2019-04-27T16:41:32.990Z,29.37
2019-04-27T16:44:06.935Z,21.77
